createdAt,value
2019-05-30T00:02:13.614Z,2.30
2019-05-30T00:04:42.010Z,2.40
2019-05-30T00:07:11.347Z,2.53
2019-05-30T00:09:40.947Z,2.55
2019-05-30T00:12:09.434Z,2.52
2019-05-30T00:14:37.894Z,3.08
2019-05-30T00:17:06.274Z,2.70
2019-05-30T00:19:34.970Z,2.92
2019-05-30T00:22:03.892Z,2.70
2019-05-30T00:24:33.561Z,2.67
2019-05-30T00:27:02.486Z,2.62
2019-05-30T00:29:31.619Z,2.50
2019-05-30T00:32:00.103Z,2.65
2019-05-30T00:34:28.510Z,3.27
2019-05-30T00:36:57.688Z,2.37
2019-05-30T00:39:26.062Z,3.12
2019-05-30T00:41:55.871Z,2.62
2019-05-30T00:44:28.931Z,2.95
2019-05-30T00:46:58.066Z,2.77
2019-05-30T00:49:26.480Z,2.73
2019-05-30T00:51:54.881Z,2.70
2019-05-30T00:54:23.274Z,3.20
2019-05-30T00:56:51.831Z,2.70
2019-05-30T00:59:20.217Z,2.95
2019-05-30T01:01:50.100Z,3.00
2019-05-30T01:04:18.500Z,2.83
2019-05-30T01:06:46.881Z,3.02
2019-05-30T01:09:15.281Z,3.10
2019-05-30T01:11:43.661Z,2.58
2019-05-30T01:14:12.059Z,3.22
2019-05-30T01:16:42.708Z,2.77
2019-05-30T01:19:10.596Z,2.87
2019-05-30T01:21:39.029Z,3.15
2019-05-30T01:24:07.772Z,2.70
2019-05-30T01:26:36.292Z,3.90
2019-05-30T01:29:05.552Z,3.27
2019-05-30T01:31:35.747Z,2.98
2019-05-30T01:34:05.880Z,3.95
2019-05-30T01:36:35.820Z,4.22
2019-05-30T01:39:07.997Z,3.80
2019-05-30T01:41:36.575Z,3.60
2019-05-30T01:44:06.116Z,3.42
2019-05-30T01:46:34.795Z,2.75
2019-05-30T01:49:04.369Z,2.98
2019-05-30T01:51:32.833Z,3.65
2019-05-30T01:54:02.466Z,3.45
2019-05-30T01:56:31.511Z,3.47
2019-05-30T01:59:00.556Z,3.98
2019-05-30T02:01:29.073Z,3.62
2019-05-30T02:03:58.973Z,3.35
2019-05-30T02:06:27.531Z,3.40
2019-05-30T02:09:13.731Z,4.08
2019-05-30T02:11:42.147Z,3.92
2019-05-30T02:14:12.037Z,3.33
2019-05-30T02:16:40.439Z,4.47
2019-05-30T02:19:10.607Z,3.52
2019-05-30T02:21:39.383Z,3.80
2019-05-30T02:24:08.011Z,3.37
2019-05-30T02:26:36.346Z,4.73
2019-05-30T02:29:06.193Z,4.87
2019-05-30T02:31:39.531Z,5.45
2019-05-30T02:34:07.625Z,4.92
2019-05-30T02:36:36.879Z,5.33
2019-05-30T02:39:09.678Z,5.37
2019-05-30T02:41:37.975Z,5.28
2019-05-30T02:44:07.658Z,4.65
2019-05-30T02:46:36.548Z,5.00
2019-05-30T02:49:07.214Z,4.50
2019-05-30T02:51:36.614Z,4.60
2019-05-30T02:54:07.005Z,5.25
2019-05-30T02:56:35.547Z,4.53
2019-05-30T02:59:06.061Z,4.90
2019-05-30T03:01:34.711Z,4.87
2019-05-30T03:04:04.029Z,5.30
2019-05-30T03:06:33.461Z,5.40
2019-05-30T03:09:03.824Z,5.12
2019-05-30T03:11:32.910Z,5.40
2019-05-30T03:14:04.466Z,5.25
2019-05-30T03:16:33.052Z,5.42
2019-05-30T03:19:01.926Z,5.10
2019-05-30T03:21:30.836Z,5.30
2019-05-30T03:24:02.597Z,6.12
2019-05-30T03:26:30.841Z,5.47
2019-05-30T03:28:59.432Z,5.35
2019-05-30T03:31:30.525Z,5.12
2019-05-30T03:34:00.781Z,6.28
2019-05-30T03:36:31.787Z,5.85
2019-05-30T03:38:59.256Z,6.60
2019-05-30T03:41:27.631Z,6.53
2019-05-30T03:43:56.118Z,7.10
2019-05-30T03:46:27.574Z,6.10
2019-05-30T03:48:59.192Z,6.83
2019-05-30T03:51:29.992Z,6.95
2019-05-30T03:53:59.337Z,5.65
2019-05-30T03:56:42.434Z,6.50
2019-05-30T03:59:23.209Z,5.87
2019-05-30T04:02:08.972Z,6.13
2019-05-30T04:04:46.078Z,7.58
2019-05-30T04:07:19.457Z,6.22
2019-05-30T04:09:49.460Z,6.22
2019-05-30T04:12:26.190Z,7.90
2019-05-30T04:14:57.663Z,8.00
2019-05-30T04:17:26.042Z,7.75
2019-05-30T04:19:54.694Z,9.20
2019-05-30T04:22:23.072Z,9.18
2019-05-30T04:24:51.463Z,8.63
2019-05-30T04:27:19.985Z,9.13
2019-05-30T04:29:48.374Z,8.27
2019-05-30T04:32:18.471Z,9.45
2019-05-30T04:34:46.872Z,8.73
2019-05-30T04:37:17.039Z,9.10
2019-05-30T04:40:05.069Z,9.18
2019-05-30T04:42:33.503Z,8.40
2019-05-30T04:45:01.950Z,7.97
2019-05-30T04:47:30.379Z,8.00
2019-05-30T04:49:58.779Z,8.53
2019-05-30T04:52:27.222Z,7.92
2019-05-30T04:54:55.639Z,7.78
2019-05-30T04:57:27.140Z,8.35
2019-05-30T04:59:57.161Z,7.75
2019-05-30T05:02:25.545Z,7.22
2019-05-30T05:04:53.969Z,8.08
2019-05-30T05:07:22.361Z,7.45
2019-05-30T05:09:50.763Z,7.20
2019-05-30T05:12:20.394Z,6.97
2019-05-30T05:14:50.513Z,7.37
2019-05-30T05:17:18.949Z,7.05
2019-05-30T05:19:47.350Z,7.33
2019-05-30T05:22:16.950Z,8.08
2019-05-30T05:24:45.832Z,7.15
2019-05-30T05:27:15.456Z,6.83
2019-05-30T05:29:44.209Z,6.58
2019-05-30T05:32:12.597Z,6.60
2019-05-30T05:34:41.000Z,6.20
2019-05-30T05:37:09.377Z,5.93
2019-05-30T05:39:37.754Z,6.05
2019-05-30T05:42:06.159Z,6.00
2019-05-30T05:44:34.574Z,6.47
2019-05-30T05:47:03.076Z,6.00
2019-05-30T05:49:31.812Z,6.37
2019-05-30T05:52:00.215Z,5.97
2019-05-30T05:54:29.241Z,5.87
2019-05-30T05:56:57.715Z,5.17
2019-05-30T05:59:26.129Z,5.90
2019-05-30T06:01:56.046Z,5.40
2019-05-30T06:04:25.260Z,5.40
2019-05-30T06:06:54.147Z,5.03
2019-05-30T06:09:22.732Z,5.37
2019-05-30T06:11:51.103Z,5.58
2019-05-30T06:14:19.911Z,5.27
2019-05-30T06:16:48.583Z,4.80
2019-05-30T06:19:17.220Z,4.90
2019-05-30T06:21:53.942Z,4.80
2019-05-30T06:24:17.538Z,4.77
2019-05-30T06:26:46.401Z,4.30
2019-05-30T06:29:14.819Z,4.55
2019-05-30T06:31:43.213Z,4.67
2019-05-30T06:34:11.666Z,3.98
2019-05-30T06:36:40.014Z,4.20
2019-05-30T06:39:09.555Z,3.90
2019-05-30T06:41:37.942Z,3.50
2019-05-30T06:44:06.339Z,4.05
2019-05-30T06:46:34.727Z,4.10
2019-05-30T06:49:03.393Z,4.20
2019-05-30T06:51:33.384Z,3.70
2019-05-30T06:54:01.786Z,3.50
2019-05-30T06:56:31.485Z,3.67
2019-05-30T06:58:59.976Z,4.17
2019-05-30T07:01:30.164Z,3.73
2019-05-30T07:03:58.676Z,4.17
2019-05-30T07:06:29.635Z,3.55
2019-05-30T07:08:58.829Z,4.42
2019-05-30T07:11:27.321Z,3.98
2019-05-30T07:13:55.752Z,3.90
2019-05-30T07:16:25.271Z,3.98
2019-05-30T07:18:54.219Z,3.30
2019-05-30T07:21:23.545Z,3.45
2019-05-30T07:23:54.162Z,3.70
2019-05-30T07:26:23.737Z,3.57
2019-05-30T07:28:52.678Z,3.47
2019-05-30T07:31:21.065Z,3.95
2019-05-30T07:33:49.561Z,3.50
2019-05-30T07:36:17.955Z,3.42
2019-05-30T07:38:46.530Z,3.33
2019-05-30T07:41:14.920Z,3.62
2019-05-30T07:43:43.320Z,3.20
2019-05-30T07:46:11.738Z,3.15
2019-05-30T07:48:40.227Z,3.60
2019-05-30T07:51:10.141Z,3.20
2019-05-30T07:53:39.147Z,3.47
2019-05-30T07:56:07.695Z,3.20
2019-05-30T07:58:37.317Z,3.00
2019-05-30T08:01:06.010Z,2.85
2019-05-30T08:03:34.774Z,2.87
2019-05-30T08:06:05.056Z,3.02
2019-05-30T08:08:33.955Z,2.90
2019-05-30T08:11:09.352Z,2.95
2019-05-30T08:13:33.148Z,2.90
2019-05-30T08:16:03.371Z,2.85
2019-05-30T08:18:31.867Z,3.22
2019-05-30T08:21:00.350Z,2.98
2019-05-30T08:23:29.967Z,3.62
2019-05-30T08:26:00.306Z,3.30
2019-05-30T08:28:28.884Z,2.90
2019-05-30T08:30:57.882Z,2.50
2019-05-30T08:33:26.290Z,2.50
2019-05-30T08:35:57.942Z,2.72
2019-05-30T08:38:26.324Z,2.65
2019-05-30T08:40:54.723Z,2.45
2019-05-30T08:43:23.570Z,2.25
2019-05-30T08:45:51.980Z,2.27
2019-05-30T08:48:20.386Z,2.77
2019-05-30T08:50:48.789Z,2.50
2019-05-30T08:53:17.372Z,2.50
2019-05-30T08:55:45.797Z,2.70
2019-05-30T08:58:14.215Z,1.98
2019-05-30T09:00:42.659Z,2.45
2019-05-30T09:03:11.031Z,2.40
2019-05-30T09:05:57.254Z,2.40
2019-05-30T09:08:11.188Z,1.90
2019-05-30T09:10:42.559Z,1.77
2019-05-30T09:13:11.546Z,2.00
2019-05-30T09:15:42.892Z,2.47
2019-05-30T09:18:11.530Z,2.40
2019-05-30T09:20:41.728Z,2.50
2019-05-30T09:23:10.209Z,2.40
2019-05-30T09:25:39.943Z,2.30
2019-05-30T09:28:08.870Z,2.12
2019-05-30T09:30:39.352Z,1.82
2019-05-30T09:33:07.510Z,1.95
2019-05-30T09:35:35.935Z,1.90
2019-05-30T09:38:04.666Z,1.60
2019-05-30T09:40:34.660Z,1.55
2019-05-30T09:43:03.063Z,1.72
2019-05-30T09:45:32.619Z,1.70
2019-05-30T09:48:01.200Z,2.05
2019-05-30T09:50:29.605Z,1.67
2019-05-30T09:52:57.988Z,1.17
2019-05-30T09:55:27.991Z,1.70
2019-05-30T09:57:57.993Z,1.20
2019-05-30T10:00:26.575Z,1.60
2019-05-30T10:02:56.608Z,1.50
2019-05-30T10:05:25.226Z,1.45
2019-05-30T10:07:53.596Z,1.53
2019-05-30T10:10:22.003Z,1.90
2019-05-30T10:12:50.965Z,2.10
2019-05-30T10:15:20.208Z,1.72
2019-05-30T10:17:52.418Z,2.17
2019-05-30T10:20:23.549Z,1.50
2019-05-30T10:22:53.868Z,2.80
2019-05-30T10:25:22.577Z,2.50
2019-05-30T10:27:52.665Z,6.25
2019-05-30T10:30:22.392Z,5.13
2019-05-30T10:32:51.957Z,2.37
2019-05-30T10:35:21.309Z,2.67
2019-05-30T10:37:50.912Z,2.90
2019-05-30T10:40:19.966Z,8.78
2019-05-30T10:42:49.559Z,3.60
2019-05-30T10:45:19.451Z,2.53
2019-05-30T10:47:49.308Z,2.30
2019-05-30T10:50:19.940Z,2.17
2019-05-30T10:52:49.449Z,4.78
2019-05-30T10:55:19.723Z,3.40
2019-05-30T10:57:48.683Z,3.15
2019-05-30T11:00:21.210Z,2.57
2019-05-30T11:02:51.065Z,2.30
2019-05-30T11:05:20.901Z,2.20
2019-05-30T11:08:07.120Z,2.00
2019-05-30T11:10:37.974Z,1.90
2019-05-30T11:13:09.926Z,2.53
2019-05-30T11:15:38.464Z,2.23
2019-05-30T11:18:07.049Z,1.90
2019-05-30T11:20:35.436Z,2.00
2019-05-30T11:23:06.494Z,1.60
2019-05-30T11:25:35.030Z,24.18
2019-05-30T11:28:05.873Z,3.60
2019-05-30T11:30:34.263Z,1.83
2019-05-30T11:33:02.749Z,2.12
2019-05-30T11:35:32.500Z,2.10
2019-05-30T11:38:02.694Z,1.80
2019-05-30T11:40:31.116Z,1.82
2019-05-30T11:43:00.059Z,2.87
2019-05-30T11:45:28.645Z,1.42
2019-05-30T11:47:58.081Z,12.63
2019-05-30T11:50:27.369Z,3.58
2019-05-30T11:52:55.956Z,1.80
2019-05-30T11:55:24.325Z,1.17
2019-05-30T11:57:54.542Z,1.65
2019-05-30T12:00:23.011Z,1.72
2019-05-30T12:02:52.210Z,1.52
2019-05-30T12:05:21.544Z,1.47
2019-05-30T12:07:50.729Z,1.40
2019-05-30T12:10:20.393Z,1.32
2019-05-30T12:12:48.804Z,1.72
2019-05-30T12:15:19.955Z,2.65
2019-05-30T12:17:48.448Z,2.60
2019-05-30T12:20:17.923Z,2.52
2019-05-30T12:22:46.353Z,2.00
2019-05-30T12:25:15.439Z,1.83
2019-05-30T12:27:43.807Z,2.08
2019-05-30T12:30:13.958Z,1.45
2019-05-30T12:32:42.525Z,1.57
2019-05-30T12:35:13.997Z,1.40
2019-05-30T12:37:55.166Z,1.55
2019-05-30T12:40:14.934Z,1.67
2019-05-30T12:42:43.338Z,1.27
2019-05-30T12:45:13.913Z,1.72
2019-05-30T12:47:43.869Z,1.60
2019-05-30T12:50:16.804Z,1.85
2019-05-30T12:52:45.565Z,1.70
2019-05-30T12:55:14.193Z,1.40
2019-05-30T12:57:42.611Z,1.50
2019-05-30T13:00:18.635Z,1.40
2019-05-30T13:02:48.244Z,1.27
2019-05-30T13:05:16.825Z,1.30
2019-05-30T13:07:45.251Z,1.22
2019-05-30T13:10:14.074Z,1.07
2019-05-30T13:12:42.568Z,0.90
2019-05-30T13:15:11.361Z,1.00
2019-05-30T13:17:39.909Z,1.30
2019-05-30T13:20:10.641Z,1.05
2019-05-30T13:22:39.162Z,1.05
2019-05-30T13:25:08.405Z,0.82
2019-05-30T13:27:37.555Z,0.85
2019-05-30T13:30:08.167Z,0.98
2019-05-30T13:32:36.568Z,0.65
2019-05-30T13:35:09.236Z,0.90
2019-05-30T13:37:37.709Z,0.80
2019-05-30T13:40:23.595Z,0.80
2019-05-30T13:42:42.311Z,0.70
2019-05-30T13:45:11.402Z,0.93
2019-05-30T13:47:39.796Z,0.70
2019-05-30T13:50:13.421Z,0.90
2019-05-30T13:52:41.362Z,0.90
2019-05-30T13:55:10.389Z,0.60
2019-05-30T13:57:40.378Z,0.70
2019-05-30T14:00:11.909Z,0.80
2019-05-30T14:02:40.622Z,0.70
2019-05-30T14:05:10.633Z,0.70
2019-05-30T14:07:40.677Z,1.00
2019-05-30T14:10:10.857Z,0.62
2019-05-30T14:12:41.546Z,1.00
2019-05-30T14:15:14.244Z,1.25
2019-05-30T14:17:42.302Z,0.85
2019-05-30T14:20:13.396Z,1.00
2019-05-30T14:22:41.824Z,1.02
2019-05-30T14:25:12.837Z,0.80
2019-05-30T14:27:41.792Z,1.80
2019-05-30T14:30:13.102Z,1.75
2019-05-30T14:32:41.706Z,1.00
2019-05-30T14:35:13.286Z,1.07
2019-05-30T14:37:41.108Z,0.93
2019-05-30T14:40:12.902Z,0.97
2019-05-30T14:42:41.934Z,0.80
2019-05-30T14:45:12.689Z,1.00
2019-05-30T14:47:41.102Z,0.93
2019-05-30T14:50:13.186Z,0.60
2019-05-30T14:52:41.895Z,1.15
2019-05-30T14:55:13.302Z,0.60
2019-05-30T14:57:41.771Z,1.00
2019-05-30T15:00:14.032Z,0.72
2019-05-30T15:02:43.359Z,0.55
2019-05-30T15:05:13.729Z,0.83
2019-05-30T15:07:43.150Z,1.30
2019-05-30T15:10:12.945Z,1.20
2019-05-30T15:12:42.920Z,0.80
2019-05-30T15:15:14.475Z,0.82
2019-05-30T15:17:43.903Z,0.80
2019-05-30T15:20:13.959Z,0.70
2019-05-30T15:22:43.585Z,0.70
2019-05-30T15:25:17.440Z,0.80
2019-05-30T15:27:45.922Z,0.73
2019-05-30T15:30:15.063Z,0.80
2019-05-30T15:32:44.053Z,0.68
2019-05-30T15:35:15.232Z,0.63
2019-05-30T15:37:44.495Z,0.82
2019-05-30T15:40:13.161Z,1.27
2019-05-30T15:42:41.817Z,1.20
2019-05-30T15:45:12.015Z,0.93
2019-05-30T15:47:40.918Z,0.70
2019-05-30T15:50:11.953Z,0.77
2019-05-30T15:52:41.583Z,0.70
2019-05-30T15:55:11.357Z,0.70
2019-05-30T15:57:40.135Z,0.57
2019-05-30T16:00:12.125Z,1.60
2019-05-30T16:02:41.444Z,1.15
2019-05-30T16:05:10.665Z,0.80
2019-05-30T16:07:39.140Z,0.78
2019-05-30T16:10:08.463Z,0.70
2019-05-30T16:12:36.843Z,1.10
2019-05-30T16:15:09.037Z,0.80
2019-05-30T16:17:37.484Z,0.87
2019-05-30T16:20:09.076Z,0.97
2019-05-30T16:22:37.455Z,0.90
2019-05-30T16:25:08.020Z,0.95
2019-05-30T16:27:36.391Z,0.80
2019-05-30T16:30:10.460Z,0.80
2019-05-30T16:32:40.824Z,2.10
2019-05-30T16:35:11.192Z,0.95
2019-05-30T16:37:39.575Z,0.60
2019-05-30T16:40:09.926Z,0.70
2019-05-30T16:42:38.431Z,0.63
2019-05-30T16:45:09.007Z,1.07
2019-05-30T16:47:37.918Z,0.85
2019-05-30T16:50:08.015Z,0.70
2019-05-30T16:52:37.256Z,1.00
2019-05-30T16:55:07.859Z,1.03
2019-05-30T16:57:37.003Z,2.13
2019-05-30T17:00:08.715Z,1.52
2019-05-30T17:02:37.243Z,1.40
2019-05-30T17:05:09.961Z,1.00
2019-05-30T17:07:38.739Z,1.00
2019-05-30T17:10:22.274Z,0.70
2019-05-30T17:12:39.164Z,0.93
2019-05-30T17:15:09.399Z,0.82
2019-05-30T17:17:37.906Z,1.15
2019-05-30T17:20:08.516Z,0.90
2019-05-30T17:22:36.937Z,0.90
2019-05-30T17:25:09.937Z,0.83
2019-05-30T17:27:38.437Z,0.80
2019-05-30T17:30:11.077Z,0.72
2019-05-30T17:32:39.666Z,0.70
2019-05-30T17:35:10.056Z,0.75
2019-05-30T17:37:38.434Z,1.00
2019-05-30T17:40:07.655Z,0.90
2019-05-30T17:42:36.262Z,0.82
2019-05-30T17:45:07.684Z,0.72
2019-05-30T17:47:36.082Z,0.90
2019-05-30T17:50:09.808Z,0.87
2019-05-30T17:52:41.179Z,0.82
2019-05-30T17:55:10.333Z,0.80
2019-05-30T17:57:38.739Z,1.00
2019-05-30T18:00:12.924Z,0.75
2019-05-30T18:02:42.144Z,0.80
2019-05-30T18:05:12.954Z,1.10
2019-05-30T18:07:41.453Z,0.75
2019-05-30T18:10:10.816Z,1.12
2019-05-30T18:12:39.204Z,1.12
2019-05-30T18:15:10.349Z,1.30
2019-05-30T18:17:38.730Z,1.05
2019-05-30T18:20:09.150Z,1.12
2019-05-30T18:22:37.808Z,1.03
2019-05-30T18:25:24.170Z,1.25
2019-05-30T18:27:52.851Z,1.50
2019-05-30T18:30:24.280Z,0.97
2019-05-30T18:32:52.722Z,1.00
2019-05-30T18:35:24.192Z,1.20
2019-05-30T18:37:52.994Z,1.42
2019-05-30T18:40:33.310Z,1.30
2019-05-30T18:43:03.444Z,1.10
2019-05-30T18:45:37.742Z,1.40
2019-05-30T18:48:06.840Z,1.17
2019-05-30T18:50:35.725Z,0.82
2019-05-30T18:53:05.180Z,1.15
2019-05-30T18:55:33.573Z,1.25
2019-05-30T18:58:01.974Z,0.88
2019-05-30T19:00:31.219Z,1.20
2019-05-30T19:03:00.092Z,1.00
2019-05-30T19:05:30.620Z,1.15
2019-05-30T19:07:59.117Z,0.82
2019-05-30T19:10:29.944Z,1.00
2019-05-30T19:12:58.528Z,1.10
2019-05-30T19:15:29.734Z,1.17
2019-05-30T19:17:57.481Z,1.07
2019-05-30T19:20:27.751Z,1.20
2019-05-30T19:22:56.101Z,1.10
2019-05-30T19:25:24.533Z,0.95
2019-05-30T19:27:52.973Z,0.90
2019-05-30T19:30:21.638Z,1.00
2019-05-30T19:32:52.781Z,0.82
2019-05-30T19:35:21.248Z,1.00
2019-05-30T19:37:49.742Z,0.80
2019-05-30T19:40:18.173Z,1.10
2019-05-30T19:42:46.551Z,1.00
2019-05-30T19:45:18.466Z,0.95
2019-05-30T19:47:46.856Z,0.85
2019-05-30T19:50:15.731Z,1.10
2019-05-30T19:52:46.852Z,1.85
2019-05-30T19:55:14.543Z,2.30
2019-05-30T19:57:42.982Z,1.22
2019-05-30T20:00:12.765Z,1.10
2019-05-30T20:02:41.253Z,1.02
2019-05-30T20:05:10.216Z,1.10
2019-05-30T20:07:39.003Z,1.30
2019-05-30T20:10:09.668Z,1.20
2019-05-30T20:12:39.055Z,1.35
2019-05-30T20:15:09.763Z,1.50
2019-05-30T20:17:39.900Z,1.40
2019-05-30T20:20:09.818Z,1.85
2019-05-30T20:22:38.458Z,1.47
2019-05-30T20:25:08.496Z,1.40
2019-05-30T20:27:36.999Z,1.00
2019-05-30T20:30:07.828Z,1.60
2019-05-30T20:32:36.531Z,1.50
2019-05-30T20:35:06.870Z,1.85
2019-05-30T20:37:36.627Z,1.80
2019-05-30T20:40:09.985Z,1.40
2019-05-30T20:42:39.007Z,1.90
2019-05-30T20:45:10.059Z,1.42
2019-05-30T20:47:40.567Z,1.40
2019-05-30T20:50:10.851Z,1.60
2019-05-30T20:52:42.275Z,1.70
2019-05-30T20:55:09.560Z,1.20
2019-05-30T20:57:38.366Z,1.40
2019-05-30T21:00:11.111Z,1.10
2019-05-30T21:02:40.761Z,1.30
2019-05-30T21:05:10.429Z,1.15
2019-05-30T21:07:41.936Z,1.30
2019-05-30T21:10:10.979Z,1.32
2019-05-30T21:12:43.507Z,1.32
2019-05-30T21:15:09.750Z,1.17
2019-05-30T21:17:38.491Z,1.20
2019-05-30T21:20:11.321Z,1.45
2019-05-30T21:22:42.290Z,1.62
2019-05-30T21:25:11.892Z,1.60
2019-05-30T21:27:40.854Z,1.55
2019-05-30T21:30:09.699Z,1.60
2019-05-30T21:32:39.773Z,1.90
2019-05-30T21:35:10.176Z,1.87
2019-05-30T21:37:39.733Z,1.50
2019-05-30T21:40:09.904Z,1.80
2019-05-30T21:42:55.720Z,2.05
2019-05-30T21:45:09.345Z,1.67
2019-05-30T21:47:38.671Z,1.42
2019-05-30T21:50:08.606Z,1.82
2019-05-30T21:52:37.076Z,1.82
2019-05-30T21:55:06.602Z,1.65
2019-05-30T21:57:35.161Z,1.77
2019-05-30T22:00:10.092Z,1.92
2019-05-30T22:02:38.490Z,1.50
2019-05-30T22:05:08.593Z,1.57
2019-05-30T22:07:37.188Z,1.52
2019-05-30T22:10:06.101Z,1.60
2019-05-30T22:12:34.502Z,1.40
2019-05-30T22:15:03.322Z,1.70
2019-05-30T22:17:31.748Z,1.40
2019-05-30T22:20:00.231Z,1.50
2019-05-30T22:22:28.623Z,1.67
2019-05-30T22:24:57.071Z,2.00
2019-05-30T22:27:25.504Z,2.00
2019-05-30T22:29:55.784Z,2.25
2019-05-30T22:32:24.353Z,2.22
2019-05-30T22:34:52.961Z,1.98
2019-05-30T22:37:23.516Z,1.90
2019-05-30T22:39:53.025Z,2.20
2019-05-30T22:42:21.509Z,2.73
2019-05-30T22:44:50.204Z,2.35
2019-05-30T22:47:18.674Z,2.12
2019-05-30T22:49:47.095Z,2.45
2019-05-30T22:52:15.481Z,1.97
2019-05-30T22:54:45.080Z,1.80
2019-05-30T22:57:14.272Z,1.67
2019-05-30T22:59:42.919Z,1.90
2019-05-30T23:02:12.835Z,1.37
2019-05-30T23:04:41.326Z,1.70
2019-05-30T23:07:09.756Z,2.17
2019-05-30T23:09:38.150Z,2.22
2019-05-30T23:12:06.553Z,1.90
2019-05-30T23:14:34.959Z,1.90
2019-05-30T23:17:04.446Z,2.58
2019-05-30T23:19:32.845Z,2.00
2019-05-30T23:22:01.250Z,2.05
2019-05-30T23:24:29.695Z,2.40
2019-05-30T23:26:58.080Z,1.75
2019-05-30T23:29:26.515Z,2.50
2019-05-30T23:31:56.096Z,2.22
2019-05-30T23:34:24.876Z,2.20
2019-05-30T23:36:54.481Z,2.22
2019-05-30T23:39:23.213Z,1.77
2019-05-30T23:41:52.727Z,2.43
2019-05-30T23:44:21.289Z,2.02
2019-05-30T23:46:49.728Z,1.75
2019-05-30T23:49:18.113Z,1.95
2019-05-30T23:51:46.537Z,2.10
2019-05-30T23:54:14.998Z,2.22
2019-05-30T23:56:43.402Z,1.90
2019-05-30T23:59:11.785Z,2.27
